Geneseo, IL (61254)

5:08 PM CDT on March 23, 2017 (GMT -0500)
In Town | | Change Station

Elev 645 ft 41.44 °N, 90.15 °W | Updated 4 minutes ago

Overcast
Overcast
41.1 °F
Feels Like 41 °F
N
0.0
Wind Variable Wind from North
Gusts 1.0 mph

Today
High -- | Low -- °F
--% Chance of Precip.
Yesterday
High -- | Low -- °F
Precip. -- in
Pressure 30.04 in
Visibility 10.0 miles
Clouds Few 4800 ft
Scattered Clouds 6000 ft
Windchill 41 °F
Dew Point 36 °F
Humidity 82%
Rainfall 0.00 in
Snow Depth Not available.
6:58 AM 7:16 PM
Waning Crescent, 20% visible
METAR KMLI 232152Z 13016G23KT 10SM FEW048 SCT060 07/02 A3002 RMK AO2 PK WND 12027/2136 SLP170 T00720017
Pressure 30.04 in
Visibility 10.0 miles
Clouds Few 4800 ft
Scattered Clouds 6000 ft
Windchill 41 °F
Dew Point 36 °F
Humidity 82%
Rainfall 0.00 in
Snow Depth Not available.
6:58 AM 7:16 PM
Waning Crescent, 20% visible
METAR KMLI 232152Z 13016G23KT 10SM FEW048 SCT060 07/02 A3002 RMK AO2 PK WND 12027/2136 SLP170 T00720017

Get Severe Weather Alerts

Thanks for signing up!

Be on the lookout for a verification email in your inbox.

You'll start receiving the daily forecast at 8 AM.

×

10-Day Weather Forecast

Almanac

Astronomy

Mar. 23, 2017 Rise Set
Actual Time
Civil Twilight
Nautical Twilight
Astronomical Twilight
Moon
Length of Visible Light
Length of Day
Tomorrow will be .
, % of the Moon is Illuminated

Today's Extremes

State Highs State Lows

Community

WunderPhotos

Upload Photos

1,962,540 photos uploaded!

WunderBlog® & News

Nearby

Air Quality

  Air Quality AQ Index Pollutant
Not available.

Snow Depth

Station Depth Elevation

Earthquake Activity

City Distance Mag. Time & Date
Minimum magnitude displayed is 2.5.

Earthquake Activity

City Distance Mag. Time & Date
Minimum magnitude displayed is 2.5.

Coastal Water Temperatures

Place Temperature

Stations

Nearby Weather Stations

Station Location Temp. Windchill Dew Point Humidity Wind Precip. Elev Updated Type
                   

Watches & Warnings

There are currently no watches in effect.